Plevna, Montana
Current Conditions -  °F | °C
As of 4:51 PM on Saturday 25 Oct 2014 (Local Time) from KBHK Reporting Station
Clear Clear  
Wind Chill: 65°   Ceiling: Unl
Heat Index: 65°   Visibility: 10mi
Dew Point: 34°   Wind: 17mph
Humidity: 32%   Direction: 140°SE
Pressure: 29.91"   Gusts: 25mph
Location:  46.42°N, 104.52°W
Report Text: KBHK 252251Z AUTO 14015G22KT 10SM CLR 18/01 A2991 RMK AO2 SLP129 T01830011
Loading
Personal Weather Stations






























Interactive Weather Map
Tropical Storm Tracking
New forecast layout! Learn more

10-Day Weather Forecast

Advertisements
Track Severe Weather on mobile